Latest Coastal Weather Observations for Hopetoun North

IDW60701

Issued at 10:52 pm WST Sunday 30 April 2017 (issued every 10 minutes, with the page automatically refreshed every 10 minutes)

About coastal observations | Map of coastal stations | Coastal observations for WA | Marine services | Other Formats
Station Details ID: 009961 Name: HOPETOUN NORTH Lat: -33.93 Lon: 120.13 Height: 26.0 m
Data from the previous 72 hours. | See also: Recent months at Hopetoun North
Date/Time
WST
Temp
°C
Wind Pressure Rain since
9am
mm
Weather Cloud Vis
km
Sea
Height
m
Swell
Dir  Spd
kts
Gust
kts
hPa Trend Height
m
Period
s
Dir
30/10:30pm 16.1 SSW 9 15 1024.3 - 0.6 - - - - - - -
30/10:00pm 15.9 SW 9 13 1024.1 - 0.6 - - - - - - -
30/09:30pm 15.8 SSW 11 15 1024.1 - 0.6 - - - - - - -
30/09:00pm 16.1 SSW 11 16 1023.9 - 0.6 - - - - - - -
30/08:30pm 16.1 SSW 12 16 1023.6 - 0.6 - - - - - - -
30/08:00pm 16.4 SSW 11 15 1023.4 - 0.6 - - - - - - -
30/07:30pm 16.5 SSW 12 17 1023.2 - 0.6 - - - - - - -
30/07:00pm 16.6 SSW 12 18 1023.1 - 0.6 - - - - - - -
30/06:30pm 16.9 SSW 12 18 1022.6 - 0.6 - - - - - - -
30/06:00pm 17.1 SSW 12 17 1022.1 - 0.6 - - - - - - -
30/05:30pm 17.0 SSW 13 17 1021.8 - 0.6 - - - - - - -
30/05:00pm 17.1 SSW 14 18 1021.4 - 0.6 - - - - - - -
30/04:30pm 17.1 SSW 13 18 1021.2 - 0.6 - - - - - - -
30/04:00pm 17.3 SSW 16 22 1020.9 - 0.6 - - - - - - -
30/03:30pm 16.8 SW 13 20 1020.7 - 0.6 - - - - - - -
30/03:00pm 16.7 SW 14 19 1020.5 - 0.6 Recent precip. - - - - - -
30/02:30pm 16.4 SSW 16 22 1020.1 - 0.6 - - - - - - -
30/02:00pm 17.4 SSW 19 25 1019.6 - 0.2 - - - - - - -
30/01:30pm 19.8 SW 16 24 1019.3 - 0.0 - - - - - - -
30/01:00pm 21.1 SW 11 15 1019.2 - 0.0 - - - - - - -
30/12:30pm 20.5 SW 11 16 1019.2 - 0.0 - - - - - - -
30/12:00pm 21.7 SW 13 17 1019.5 - 0.0 - - - - - - -
30/11:30am 21.0 WSW 11 18 1019.4 - 0.0 - - - - - - -
30/11:00am 20.6 WSW 13 18 1019.7 - 0.0 - - - - - - -
30/10:30am 19.7 W 8 11 1019.8 - 0.0 - - - - - - -
30/10:00am 19.2 WNW 4 9 1019.7 - 0.0 - - - - - - -
30/09:30am 17.9 W 8 11 1019.8 - 0.0 - - - - - - -
30/09:00am 17.4 W 8 12 1020.0 - 0.0 - - - - - - -
30/08:30am 16.5 W 5 9 1019.8 - 0.0 - - - - - - -
30/08:00am 15.3 NNW 3 4 1019.5 - 0.0 - - - - - - -
30/07:30am 14.2 N 3 5 1019.3 - 0.0 - - - - - - -
30/07:00am 13.2 W 3 6 1018.9 - 0.0 - - - - - - -
30/06:30am 12.3 N 2 6 1018.4 - 0.0 - - - - - - -
30/06:00am 12.2 NE 3 5 1018.6 - 0.0 - - - - - - -
30/05:30am 14.0 WSW 4 10 1018.6 - 0.0 - - - - - - -
30/05:00am 13.4 N 7 10 1018.4 - 0.0 - - - - - - -
30/04:30am 13.7 NNW 10 13 1018.3 - 0.0 - - - - - - -
30/04:00am 13.2 NNW 6 9 1018.3 - 0.0 - - - - - - -
30/03:30am 13.6 N 8 13 1018.0 - 0.0 - - - - - - -
30/03:00am 12.7 N 6 9 1018.4 - 0.0 - - - - - - -
30/02:30am 12.6 N 6 9 1018.9 - 0.0 - - - - - - -
30/02:00am 12.4 N 5 7 1019.5 - 0.0 - - - - - - -
30/01:30am 11.7 NNE 4 6 1019.3 - 0.0 - - - - - - -
30/01:00am 11.4 NNE 3 6 1019.7 - 0.0 - - - - - - -
30/12:30am 10.6 N 4 6 1019.8 - 0.0 - - - - - - -
30/12:00am 10.8 NNE 5 7 1020.0 - 0.0 - - - - - - -
 
Date/Time
WST
Temp
°C
Wind Pressure Rain since
9am
mm
Weather Cloud Vis
km
Sea
Height
m
Swell
Dir  Spd
kts
Gust
kts
hPa Trend Height
m
Period
s
Dir
29/11:30pm 12.3 NNE 7 8 1020.3 - 0.0 - - - - - - -
29/11:00pm 11.1 NNE 7 8 1020.8 - 0.0 - - - - - - -
29/10:30pm 10.6 NNE 5 5 1021.3 - 0.0 - - - - - - -
29/10:00pm 12.2 NNE 2 2 1021.6 - 0.0 - - - - - - -
29/09:30pm 12.2 NNE 3 4 1021.7 - 0.0 - - - - - - -
29/09:00pm 12.1 NNE 4 4 1021.9 - 0.0 - - - - - - -
29/08:30pm 13.0 NNE 3 3 1021.8 - 0.0 - - - - - - -
29/08:00pm 12.9 NNE 4 4 1021.7 - 0.0 - - - - - - -
29/07:30pm 13.3 NE 3 3 1021.8 - 0.0 - - - - - - -
29/07:00pm 14.1 NE 4 5 1021.7 - 0.0 - - - - - - -
29/06:30pm 15.3 ENE 6 6 1021.6 - 0.0 - - - - - - -
29/06:00pm 16.2 E 7 8 1021.4 - 0.0 - - - - - - -
29/05:30pm 16.9 E 5 7 1021.3 - 0.0 - - - - - - -
29/05:00pm 18.3 E 6 8 1021.3 - 0.0 - - - - - - -
29/04:30pm 19.2 ESE 7 10 1021.4 - 0.0 - - - - - - -
29/04:00pm 19.8 ESE 8 12 1021.3 - 0.0 - - - - - - -
29/03:30pm 20.2 ESE 9 12 1021.2 - 0.0 - - - - - - -
29/03:00pm 20.4 SE 10 13 1021.3 - 0.0 - - - - - - -
29/02:30pm 20.7 SE 10 12 1021.4 - 0.0 - - - - - - -
29/02:00pm 20.8 SSE 10 12 1021.5 - 0.0 - - - - - - -
29/01:30pm 20.8 SSE 9 12 1021.7 - 0.0 - - - - - - -
29/01:00pm 20.4 S 9 13 1022.2 - 0.0 - - - - - - -
29/12:30pm 21.2 SSE 8 10 1022.6 - 0.0 - - - - - - -
29/12:00pm 21.8 SSE 7 8 1023.1 - 0.0 - - - - - - -
29/11:30am 21.6 SSE 6 8 1023.4 - 0.0 - - - - - - -
29/11:00am 22.7 NW 3 5 1023.8 - 0.0 - - - - - - -
29/10:30am 21.1 W 2 5 1024.3 - 0.0 - - - - - - -
29/10:00am 20.1 N 3 5 1024.7 - 0.0 - - - - - - -
29/09:30am 18.4 NNW 5 7 1025.0 - 0.0 - - - - - - -
29/09:00am 17.7 NNW 5 7 1025.3 - 0.2 - - - - - - -
29/08:30am 15.3 NNW 5 7 1025.4 - 0.2 - - - - - - -
29/08:00am 12.3 NNE 4 6 1025.2 - 0.2 - - - - - - -
29/07:30am 9.2 NNE 3 4 1025.2 - 0.2 - - - - - - -
29/07:00am 7.4 NE 5 6 1025.1 - 0.2 - - - - - - -
29/06:30am 7.5 ENE 5 5 1025.1 - 0.2 - - - - - - -
29/06:00am 9.2 NNW 2 3 1025.2 - 0.2 Recent precip. - - - - - -
29/05:30am 9.1 N 3 5 1025.2 - 0.2 - - - - - - -
29/05:00am 8.4 N 3 3 1025.3 - 0.0 - - - - - - -
29/04:30am 8.1 NNE 3 4 1025.1 - 0.0 - - - - - - -
29/04:00am 8.2 NE 5 6 1025.0 - 0.0 - - - - - - -
29/03:30am 9.4 N 3 4 1025.0 - 0.0 - - - - - - -
29/03:00am 9.3 NNE 3 3 1025.0 - 0.0 - - - - - - -
29/02:30am 9.4 NNE 5 5 1025.1 - 0.0 - - - - - - -
29/02:00am 9.4 NE 4 4 1025.1 - 0.0 - - - - - - -
29/01:30am 10.9 CALM 0 2 1025.3 - 0.0 - - - - - - -
29/01:00am 11.8 NNE 2 3 1025.4 - 0.0 - - - - - - -
29/12:30am 12.5 N 2 3 1025.5 - 0.0 - - - - - - -
29/12:00am 12.5 N 1 2 1025.5 - 0.0 - - - - - - -
 
Date/Time
WST
Temp
°C
Wind Pressure Rain since
9am
mm
Weather Cloud Vis
km
Sea
Height
m
Swell
Dir  Spd
kts
Gust
kts
hPa Trend Height
m
Period
s
Dir
28/11:30pm 12.1 N 3 3 1025.6 - 0.0 - - - - - - -
28/11:00pm 12.4 NNE 2 3 1025.7 - 0.0 - - - - - - -
28/10:30pm 12.8 NNE 3 3 1026.0 - 0.0 - - - - - - -
28/10:00pm 13.3 NNE 4 4 1026.1 - 0.0 - - - - - - -
28/09:30pm 13.5 NNE 3 3 1026.1 - 0.0 - - - - - - -
28/09:00pm 13.5 NE 4 5 1026.1 - 0.0 - - - - - - -
28/08:30pm 13.7 NNE 4 5 1026.1 - 0.0 - - - - - - -
28/08:00pm 14.6 ENE 3 3 1026.2 - 0.0 - - - - - - -
28/07:30pm 15.4 ENE 4 5 1026.0 - 0.0 - - - - - - -
28/07:00pm 15.8 E 4 5 1025.9 - 0.0 - - - - - - -
28/06:30pm 16.9 E 5 6 1025.6 - 0.0 - - - - - - -
28/06:00pm 17.5 ESE 6 8 1025.4 - 0.0 - - - - - - -
28/05:30pm 17.9 ESE 6 9 1025.1 - 0.0 - - - - - - -
28/05:00pm 18.7 ESE 5 8 1024.9 - 0.0 - - - - - - -
28/04:30pm 19.4 SE 8 12 1024.8 - 0.0 - - - - - - -
28/04:00pm 20.5 SE 9 12 1024.7 - 0.0 - - - - - - -
28/03:30pm 21.1 SE 8 11 1024.6 - 0.0 - - - - - - -
28/03:00pm 20.6 SE 9 11 1024.7 - 0.0 - - - - - - -
28/02:30pm 21.9 SE 8 11 1024.5 - 0.0 - - - - - - -
28/02:00pm 20.9 SE 8 11 1024.6 - 0.0 - - - - - - -
28/01:30pm 21.0 SSE 7 10 1024.8 - 0.0 - - - - - - -
28/01:00pm 22.3 SSE 8 10 1025.0 - 0.0 - - - - - - -
28/12:30pm 22.4 SSE 7 9 1025.3 - 0.0 - - - - - - -
28/12:00pm 22.0 S 7 9 1025.8 - 0.0 - - - - - - -
28/11:30am 22.5 S 5 7 1026.2 - 0.0 - - - - - - -
28/11:00am 22.0 SSW 4 6 1026.6 - 0.0 - - - - - - -
28/10:30am 21.5 SSW 3 5 1027.0 - 0.0 - - - - - - -
28/10:00am 20.6 SW 3 5 1027.2 - 0.0 - - - - - - -
28/09:30am 20.0 WNW 4 5 1027.4 - 0.0 - - - - - - -
28/09:00am 18.6 NNW 4 6 1027.7 - 0.0 - - - - - - -
28/08:30am 16.7 N 6 9 1027.8 - 0.0 - - - - - - -
28/08:00am 13.9 NNE 3 4 1027.5 - 0.0 - - - - - - -
28/07:30am 11.9 NNE 2 3 1027.3 - 0.0 - - - - - - -
28/07:00am 10.2 NE 3 4 1027.1 - 0.0 - - - - - - -
28/06:30am 10.2 NE 3 4 1026.8 - 0.0 - - - - - - -
28/06:00am 12.1 NNW 2 3 1026.6 - 0.0 - - - - - - -
28/05:30am 12.1 NNW 2 4 1026.3 - 0.0 - - - - - - -
28/05:00am 10.5 N 1 3 1026.1 - 0.0 - - - - - - -
28/04:30am 10.1 N 3 3 1026.0 - 0.0 - - - - - - -
28/04:00am 10.0 N 2 3 1025.9 - 0.0 - - - - - - -
28/03:30am 10.9 N 3 4 1025.8 - 0.0 - - - - - - -
28/03:00am 10.6 N 3 4 1025.7 - 0.0 - - - - - - -
28/02:30am 10.4 NNE 4 5 1025.5 - 0.0 - - - - - - -
28/02:00am 10.7 NE 4 5 1025.6 - 0.0 - - - - - - -
28/01:30am 11.2 ENE 5 6 1025.6 - 0.0 - - - - - - -
28/01:00am 12.1 ENE 4 6 1025.6 - 0.0 - - - - - - -
28/12:30am 12.2 CALM 0 4 1025.6 - 0.0 - - - - - - -
28/12:00am 12.4 CALM 0 0 1025.7 - 0.0 - - - - - - -
 
Date/Time
WST
Temp
°C
Wind Pressure Rain since
9am
mm
Weather Cloud Vis
km
Sea
Height
m
Swell
Dir  Spd
kts
Gust
kts
hPa Trend Height
m
Period
s
Dir
27/11:30pm 12.6 N 2 3 1025.7 - 0.0 - - - - - - -
27/11:00pm 12.9 NNE 2 3 1025.7 - 0.0 - - - - - - -

Other Formats:

Comma delimited format used in spreadsheet applications
http://www.bom.gov.au/fwo/IDW60701/IDW60701.95635.axf

JavaScript Object Notation format (JSON) in row-major order
http://www.bom.gov.au/fwo/IDW60701/IDW60701.95635.json